createdAt,value
2022-10-17T19:22:36.865Z,33.83
2022-10-17T19:25:05.908Z,36.08
2022-10-17T19:27:34.018Z,35.17
2022-10-17T19:30:02.723Z,36.15
2022-10-17T19:32:32.914Z,34.90
2022-10-17T19:35:01.607Z,35.60
2022-10-17T19:37:30.958Z,35.70
2022-10-17T19:39:59.415Z,36.03
2022-10-17T19:42:27.609Z,37.83
2022-10-17T19:44:56.083Z,37.45
2022-10-17T19:47:24.363Z,37.28
2022-10-17T19:49:52.851Z,38.08
2022-10-17T19:52:21.574Z,38.58
2022-10-17T19:54:50.292Z,38.45
2022-10-17T19:57:18.943Z,37.65
2022-10-17T19:59:49.311Z,37.80
2022-10-17T20:02:20.877Z,39.92
2022-10-17T20:04:54.592Z,38.85
2022-10-17T20:07:34.710Z,38.70
2022-10-17T20:10:03.303Z,38.97
2022-10-17T20:12:31.613Z,38.95
2022-10-17T20:15:00.415Z,40.50
2022-10-17T20:17:28.797Z,39.08
2022-10-17T20:19:57.569Z,40.13
2022-10-17T20:22:25.950Z,39.42
2022-10-17T20:24:54.259Z,38.78
2022-10-17T20:27:25.528Z,41.03
2022-10-17T20:30:01.895Z,39.92
2022-10-17T20:32:39.426Z,40.85
2022-10-17T20:35:08.851Z,42.63
2022-10-17T20:37:41.587Z,41.33
2022-10-17T20:43:01.819Z,40.50
2022-10-17T20:45:45.166Z,40.95
2022-10-17T20:48:19.033Z,44.85
2022-10-17T20:50:47.401Z,39.97
2022-10-17T20:53:36.461Z,43.15
2022-10-17T20:56:08.488Z,41.45
2022-10-17T20:58:36.647Z,40.67
2022-10-17T21:01:07.519Z,41.03
2022-10-17T21:03:39.943Z,42.03
2022-10-17T21:06:11.372Z,41.67
2022-10-17T21:08:39.199Z,39.97
2022-10-17T21:11:12.271Z,40.00
2022-10-17T21:13:41.009Z,41.55
2022-10-17T21:16:15.871Z,40.78
2022-10-17T21:18:45.008Z,42.40
2022-10-17T21:21:17.684Z,41.03
2022-10-17T21:23:47.649Z,41.75
2022-10-17T21:26:18.089Z,42.10
2022-10-17T21:28:48.131Z,39.55
2022-10-17T21:31:18.101Z,39.10
2022-10-17T21:33:49.851Z,38.70
2022-10-17T21:36:19.390Z,40.22
2022-10-17T21:38:50.661Z,37.65
2022-10-17T21:41:21.129Z,37.28
2022-10-17T21:43:53.269Z,39.05
2022-10-17T21:46:22.609Z,38.78
2022-10-17T21:48:52.396Z,40.80
2022-10-17T21:51:26.227Z,38.38
2022-10-17T21:56:28.340Z,38.05
2022-10-17T21:58:58.539Z,37.47
2022-10-17T22:01:32.651Z,36.90
2022-10-17T22:04:03.898Z,38.55
2022-10-17T22:06:41.216Z,36.15
2022-10-17T22:09:17.136Z,35.10
2022-10-17T22:11:48.287Z,35.63
2022-10-17T22:14:18.602Z,34.95
2022-10-17T22:16:47.963Z,36.13
2022-10-17T22:19:19.740Z,35.83
2022-10-17T22:21:48.094Z,34.70
2022-10-17T22:24:18.368Z,34.70
2022-10-17T22:26:46.804Z,33.92
2022-10-17T22:29:15.257Z,34.58
2022-10-17T22:31:43.918Z,34.80
2022-10-17T22:34:14.399Z,36.92
2022-10-17T22:36:43.258Z,35.63
2022-10-17T22:39:11.919Z,36.40
2022-10-17T22:41:40.092Z,34.95
2022-10-17T22:44:08.205Z,34.40
2022-10-17T22:46:36.698Z,34.63
2022-10-17T22:49:04.726Z,33.85
2022-10-17T22:51:32.896Z,32.22
2022-10-17T22:54:00.974Z,34.28
2022-10-17T22:56:29.151Z,33.78
2022-10-17T22:58:57.345Z,33.08
2022-10-17T23:01:26.070Z,33.13
2022-10-17T23:03:54.673Z,33.50
2022-10-17T23:06:24.270Z,33.45
2022-10-17T23:08:52.634Z,33.17
2022-10-17T23:11:21.193Z,31.33
2022-10-17T23:13:49.127Z,32.20
2022-10-17T23:16:17.405Z,32.20
2022-10-17T23:18:45.483Z,31.98
2022-10-17T23:21:13.744Z,31.20
2022-10-17T23:23:43.012Z,29.75
2022-10-17T23:26:14.419Z,29.90
2022-10-17T23:28:43.162Z,29.70
2022-10-17T23:31:17.634Z,29.02
2022-10-17T23:33:47.507Z,30.35
2022-10-17T23:36:18.995Z,28.38
2022-10-17T23:38:48.180Z,31.50
2022-10-17T23:41:16.968Z,30.17
2022-10-17T23:43:45.030Z,30.50
2022-10-17T23:46:13.754Z,28.92
2022-10-17T23:48:42.018Z,29.83
2022-10-17T23:51:11.137Z,29.02
2022-10-17T23:53:40.509Z,29.02
2022-10-17T23:56:10.419Z,30.02
2022-10-17T23:58:39.311Z,28.58
